Time;durP1;ratioP1;P1;durP2;ratioP2;P2;SDS_P1;SDS_P2;PMS_P1;PMS_P2;Temp;Humidity;BMP_temperature;BMP_pressure;BME280_temperature;BME280_humidity;BME280_pressure;Samples;Min_cycle;Max_cycle;Signal;HPM_P1;HPM_P2
2023/06/26 00:00:53;;;;;;;8.40;6.10;;;;;;;19.69;63.83;99031.23;223644;182;143584;-65
2023/06/26 00:06:19;;;;;;;7.00;5.70;;;;;;;19.61;63.92;99031.77;223581;182;140448;-64
2023/06/26 00:11:27;;;;;;;8.50;6.10;;;;;;;19.61;63.19;99029.46;223641;183;136266;-65
2023/06/26 00:16:42;;;;;;;6.80;5.70;;;;;;;19.61;63.19;99025.52;223599;183;144104;-63
2023/06/26 00:21:47;;;;;;;9.60;5.50;;;;;;;19.53;63.07;99022.31;223670;183;139325;-64
2023/06/26 00:26:51;;;;;;;8.80;5.80;;;;;;;19.52;62.48;99021.88;223659;183;136633;-64
2023/06/26 00:31:54;;;;;;;6.30;5.40;;;;;;;19.51;61.92;99015.33;223622;183;143787;-66
2023/06/26 00:36:58;;;;;;;9.60;6.10;;;;;;;19.51;61.70;99018.05;223529;182;138587;-64
2023/06/26 00:42:04;;;;;;;7.40;5.90;;;;;;;19.47;61.76;99015.15;223783;183;136429;-64
2023/06/26 00:50:51;;;;;;;8.50;5.90;;;;;;;19.41;61.44;99015.39;220996;193;675476;-65
2023/06/26 00:55:55;;;;;;;8.60;6.10;;;;;;;19.35;61.13;99013.50;223679;183;136307;-64
2023/06/26 01:01:00;;;;;;;7.30;5.80;;;;;;;19.34;61.16;99014.27;223655;183;143296;-64
2023/06/26 01:06:04;;;;;;;10.10;6.10;;;;;;;19.33;60.95;99015.64;223683;183;140022;-65
2023/06/26 01:11:08;;;;;;;7.70;6.10;;;;;;;19.34;60.84;99014.16;223695;183;136659;-64
2023/06/26 01:16:12;;;;;;;7.60;5.70;;;;;;;19.34;60.71;99011.84;223744;183;143901;-64
2023/06/26 01:21:20;;;;;;;8.10;6.20;;;;;;;19.33;60.64;99007.34;223564;183;138280;-65
2023/06/26 01:26:38;;;;;;;13.00;6.40;;;;;;;19.33;60.69;99007.23;223687;183;136832;-66
2023/06/26 01:31:42;;;;;;;12.60;6.90;;;;;;;19.29;60.88;99005.08;223691;183;143155;-66
2023/06/26 01:36:45;;;;;;;11.00;7.10;;;;;;;19.24;61.23;99004.33;223685;182;138950;-67
2023/06/26 01:41:49;;;;;;;11.60;7.10;;;;;;;19.21;61.23;98997.92;223814;182;137307;-67
2023/06/26 01:50:48;;;;;;;9.70;7.20;;;;;;;19.22;61.46;98992.80;221122;193;677008;-67
2023/06/26 01:55:56;;;;;;;9.60;7.20;;;;;;;19.11;61.72;98994.95;223451;185;136648;-68
2023/06/26 02:01:00;;;;;;;10.90;7.30;;;;;;;19.02;62.20;98994.83;223747;183;143222;-67
2023/06/26 02:06:03;;;;;;;10.40;6.90;;;;;;;18.94;62.43;98992.31;223686;182;138372;-67
2023/06/26 02:11:06;;;;;;;15.20;6.90;;;;;;;18.91;62.73;98996.05;223809;177;138014;-66
2023/06/26 02:16:09;;;;;;;9.80;7.20;;;;;;;18.91;62.80;98990.45;223783;181;144897;-64
2023/06/26 02:21:13;;;;;;;11.10;7.70;;;;;;;18.92;62.78;98993.06;223639;181;139221;-64
2023/06/26 02:26:16;;;;;;;9.70;7.00;;;;;;;18.88;62.86;98988.77;223691;181;136460;-67
2023/06/26 02:31:19;;;;;;;10.90;7.20;;;;;;;18.84;62.77;98985.74;223778;181;144703;-67
2023/06/26 02:36:24;;;;;;;9.50;7.20;;;;;;;18.81;62.75;98995.27;223712;181;138943;-64
2023/06/26 02:41:28;;;;;;;10.30;7.30;;;;;;;18.75;62.92;98995.77;223812;181;136354;-65
2023/06/26 02:46:33;;;;;;;10.60;7.40;;;;;;;18.67;62.98;98996.72;223659;181;145493;-65
2023/06/26 02:51:38;;;;;;;9.90;7.20;;;;;;;18.61;63.11;98997.44;223663;182;139694;-66
2023/06/26 02:56:48;;;;;;;11.60;7.40;;;;;;;18.54;63.55;98999.06;223748;181;137512;-66
2023/06/26 03:01:55;;;;;;;10.60;7.40;;;;;;;18.47;63.84;98999.03;223650;181;147753;-64
2023/06/26 03:07:04;;;;;;;10.90;8.00;;;;;;;18.42;64.18;98998.52;223679;182;139080;-64
2023/06/26 03:12:09;;;;;;;10.70;7.00;;;;;;;18.39;64.64;99002.25;223723;182;136332;-64
2023/06/26 03:17:12;;;;;;;10.60;7.80;;;;;;;18.40;64.82;98997.17;223814;182;146056;-65
2023/06/26 03:22:17;;;;;;;13.00;7.60;;;;;;;18.46;64.85;98994.65;223693;182;138980;-65
2023/06/26 03:27:25;;;;;;;11.70;7.90;;;;;;;18.49;64.97;98998.11;223658;182;137166;-66
2023/06/26 03:32:30;;;;;;;13.10;8.20;;;;;;;18.54;64.94;98996.73;223612;182;145475;-65
2023/06/26 03:37:33;;;;;;;13.30;8.10;;;;;;;18.55;64.90;98996.62;223678;182;139685;-66
2023/06/26 03:42:36;;;;;;;10.90;8.50;;;;;;;18.56;64.76;98997.80;223646;181;136924;-66
2023/06/26 03:47:40;;;;;;;11.40;7.80;;;;;;;18.54;64.74;98998.31;223796;182;145231;-67
2023/06/26 03:52:43;;;;;;;18.50;7.80;;;;;;;18.53;64.90;99001.67;223698;181;138999;-65
2023/06/26 03:57:48;;;;;;;13.00;9.00;;;;;;;18.52;65.09;99004.26;223705;181;137098;-66
2023/06/26 04:02:52;;;;;;;9.70;8.20;;;;;;;18.51;65.03;99004.34;223733;181;145740;-66
2023/06/26 04:07:59;;;;;;;11.40;8.00;;;;;;;18.53;65.12;99015.17;223766;181;138816;-67
2023/06/26 04:13:03;;;;;;;11.60;7.70;;;;;;;18.59;65.15;99013.88;223674;182;138518;-66
2023/06/26 04:18:06;;;;;;;13.20;8.60;;;;;;;18.69;65.08;99017.36;223711;181;145700;-66
2023/06/26 04:23:10;;;;;;;14.30;8.70;;;;;;;18.82;64.69;99017.20;223758;181;138986;-66
2023/06/26 04:28:13;;;;;;;15.50;8.40;;;;;;;18.90;64.31;99012.84;223754;181;137241;-66
2023/06/26 04:33:16;;;;;;;13.20;7.90;;;;;;;18.95;63.78;99010.41;223699;181;146653;-65
2023/06/26 04:38:21;;;;;;;13.00;7.90;;;;;;;18.94;63.27;99011.19;223666;181;139123;-65
2023/06/26 04:43:24;;;;;;;15.00;8.40;;;;;;;18.99;63.15;99012.30;223674;181;137584;-65
2023/06/26 04:48:28;;;;;;;14.10;8.10;;;;;;;19.05;63.11;99008.36;223661;181;145242;-64
2023/06/26 04:53:32;;;;;;;10.60;8.00;;;;;;;19.15;63.19;99008.28;223783;181;138544;-65
2023/06/26 04:58:38;;;;;;;11.30;7.60;;;;;;;19.24;63.10;99008.68;223702;181;138692;-64
2023/06/26 05:03:41;;;;;;;13.90;7.90;;;;;;;19.33;62.89;99007.69;223653;181;145487;-65
2023/06/26 05:08:45;;;;;;;13.30;8.10;;;;;;;19.46;62.44;99010.78;223683;181;138868;-66
2023/06/26 05:13:48;;;;;;;12.80;8.00;;;;;;;19.57;62.11;99007.52;223694;181;137456;-66
2023/06/26 05:18:52;;;;;;;13.00;7.70;;;;;;;19.65;61.64;99007.63;223654;181;145770;-66
2023/06/26 05:23:57;;;;;;;13.70;7.80;;;;;;;19.75;60.85;99007.23;223691;181;138329;-67
2023/06/26 05:29:01;;;;;;;13.00;7.30;;;;;;;19.82;59.95;99006.31;223630;181;136854;-66
2023/06/26 05:34:08;;;;;;;25.60;16.90;;;;;;;19.87;59.18;99008.92;223635;181;145446;-66
2023/06/26 05:39:19;;;;;;;13.10;8.30;;;;;;;19.91;59.31;99010.59;223749;181;138425;-67
2023/06/26 05:44:22;;;;;;;12.90;8.50;;;;;;;19.94;59.69;99010.13;223747;181;137382;-65
2023/06/26 05:49:26;;;;;;;41.80;32.50;;;;;;;20.10;59.84;99011.98;223716;181;145368;-67
2023/06/26 05:54:29;;;;;;;14.20;8.60;;;;;;;20.19;59.58;99012.47;223709;181;138497;-66
2023/06/26 05:59:32;;;;;;;41.80;27.30;;;;;;;20.23;59.40;99006.25;223748;181;136990;-65
2023/06/26 06:04:37;;;;;;;10.80;7.40;;;;;;;20.26;59.07;99002.89;223653;181;145837;-65
2023/06/26 06:09:40;;;;;;;17.20;7.40;;;;;;;20.29;59.11;99000.77;223743;181;138365;-65
2023/06/26 06:14:43;;;;;;;37.10;25.00;;;;;;;20.38;59.41;98997.00;223780;181;137227;-65
2023/06/26 06:19:58;;;;;;;15.10;8.00;;;;;;;20.54;59.41;98993.17;223707;181;147014;-64
2023/06/26 06:25:01;;;;;;;11.30;7.30;;;;;;;20.67;58.83;98999.44;223689;181;138784;-66
2023/06/26 06:30:05;;;;;;;12.90;7.40;;;;;;;20.86;59.15;99001.20;223621;181;137759;-67
2023/06/26 06:35:11;;;;;;;10.70;6.80;;;;;;;21.03;58.99;99001.71;223798;181;145927;-66
2023/06/26 06:40:15;;;;;;;12.90;6.70;;;;;;;21.16;59.02;98994.19;223717;181;138399;-65
2023/06/26 06:50:58;;;;;;;13.90;6.80;;;;;;;21.45;57.92;98993.11;221705;193;665770;-66
2023/06/26 06:56:01;;;;;;;23.90;18.00;;;;;;;21.56;57.73;98994.29;223473;184;137494;-65
2023/06/26 07:01:04;;;;;;;19.40;9.20;;;;;;;21.67;57.09;98995.19;223709;183;143727;-65
2023/06/26 07:06:07;;;;;;;8.30;5.50;;;;;;;21.76;56.31;98995.50;223814;182;138862;-68
2023/06/26 07:11:11;;;;;;;16.90;7.80;;;;;;;21.87;54.98;98991.24;223750;182;137455;-73
2023/06/26 07:16:14;;;;;;;12.20;8.30;;;;;;;21.98;54.88;98991.08;223418;183;143408;-66
2023/06/26 07:21:18;;;;;;;9.70;6.00;;;;;;;22.08;54.02;98990.05;223611;183;138856;-68
2023/06/26 07:26:22;;;;;;;11.60;6.70;;;;;;;22.17;53.73;98994.65;223702;182;139022;-67
2023/06/26 07:31:42;;;;;;;11.70;6.00;;;;;;;22.27;53.58;98991.16;223807;182;144070;-69
2023/06/26 07:36:45;;;;;;;8.50;5.90;;;;;;;22.35;53.13;98986.48;223734;183;140424;-69
2023/06/26 07:41:48;;;;;;;10.30;6.30;;;;;;;22.48;53.06;98982.89;223807;182;138158;-65
2023/06/26 07:50:46;;;;;;;17.20;10.20;;;;;;;22.70;52.21;98982.31;220983;192;676242;-69
2023/06/26 07:55:50;;;;;;;9.50;6.30;;;;;;;22.80;51.87;98983.20;223027;187;137518;-68
2023/06/26 08:00:54;;;;;;;44.60;36.80;;;;;;;22.89;50.60;98986.55;223049;186;143438;-72
2023/06/26 08:05:58;;;;;;;9.60;6.20;;;;;;;22.95;50.73;98986.55;223233;186;139796;-73
2023/06/26 08:11:01;;;;;;;23.30;14.20;;;;;;;23.02;49.55;98979.16;223287;186;136744;-66
2023/06/26 08:16:04;;;;;;;34.80;28.90;;;;;;;23.06;50.17;98975.91;223347;183;143984;-67
2023/06/26 08:21:09;;;;;;;10.70;5.70;;;;;;;23.16;48.56;98977.46;223521;183;138234;-66
2023/06/26 08:26:13;;;;;;;7.20;5.20;;;;;;;23.26;48.26;98970.20;223620;183;138086;-66
2023/06/26 08:31:17;;;;;;;18.90;14.00;;;;;;;23.34;47.39;98968.05;223543;184;143304;-66
2023/06/26 08:36:21;;;;;;;5.90;4.20;;;;;;;23.50;46.15;98970.48;223641;183;138470;-67
2023/06/26 08:41:24;;;;;;;9.00;6.20;;;;;;;23.62;44.55;98966.13;223700;184;136636;-66
2023/06/26 08:46:28;;;;;;;5.30;4.00;;;;;;;23.61;45.68;98967.89;223563;183;145319;-67
2023/06/26 08:51:37;;;;;;;17.80;13.00;;;;;;;23.69;44.46;98964.94;223588;183;138157;-67
2023/06/26 08:56:44;;;;;;;7.70;4.20;;;;;;;23.81;44.36;98965.52;223543;183;137831;-66
2023/06/26 09:01:47;;;;;;;7.10;5.20;;;;;;;23.90;43.63;98961.09;223430;184;144983;-66
2023/06/26 09:06:51;;;;;;;8.10;4.30;;;;;;;24.01;45.48;98956.68;223665;183;138977;-66
2023/06/26 09:11:55;;;;;;;9.70;5.20;;;;;;;24.04;46.36;98946.33;223745;182;136172;-66
2023/06/26 09:16:58;;;;;;;45.80;36.00;;;;;;;24.03;47.35;98948.40;223737;183;145258;-66
2023/06/26 09:22:02;;;;;;;7.30;5.40;;;;;;;24.08;45.22;98949.28;223740;182;139305;-66
2023/06/26 09:27:06;;;;;;;6.40;4.50;;;;;;;24.24;45.11;98945.92;223687;182;136514;-65
2023/06/26 09:32:09;;;;;;;8.70;4.80;;;;;;;24.48;43.81;98945.16;223602;182;145115;-65
2023/06/26 09:37:13;;;;;;;8.10;4.30;;;;;;;24.62;43.82;98943.86;223626;183;138783;-65
2023/06/26 09:42:17;;;;;;;9.00;5.00;;;;;;;24.63;42.96;98947.34;223634;182;136702;-67
2023/06/26 09:52:58;;;;;;;11.80;8.00;;;;;;;24.82;43.28;98940.89;219669;192;666023;-65
2023/06/26 09:58:04;;;;;;;7.50;4.50;;;;;;;25.04;43.36;98933.15;222184;183;136322;-67
2023/06/26 10:03:08;;;;;;;7.00;4.50;;;;;;;25.11;42.54;98936.38;223581;182;143575;-66
2023/06/26 10:08:14;;;;;;;5.50;4.00;;;;;;;25.01;42.07;98938.17;223453;182;138432;-67
2023/06/26 10:13:22;;;;;;;8.30;4.20;;;;;;;24.91;42.10;98938.48;223664;182;136327;-66
2023/06/26 10:18:27;;;;;;;7.30;4.70;;;;;;;24.86;42.64;98932.79;223718;182;143894;-67
2023/06/26 10:23:31;;;;;;;6.70;4.60;;;;;;;24.92;42.77;98921.05;223815;182;139033;-66
2023/06/26 10:28:36;;;;;;;4.40;3.70;;;;;;;25.18;41.21;98915.57;223736;183;139222;-66
2023/06/26 10:33:41;;;;;;;29.40;23.40;;;;;;;25.48;40.61;98903.07;223641;183;143245;-66
2023/06/26 10:38:58;;;;;;;16.40;12.70;;;;;;;25.78;40.90;98890.63;223737;183;140768;-67
2023/06/26 10:44:01;;;;;;;6.10;3.70;;;;;;;26.11;41.31;98882.42;223795;181;137380;-65
2023/06/26 10:49:12;;;;;;;7.50;3.80;;;;;;;26.31;39.16;98882.44;223785;181;145903;-66
2023/06/26 10:54:18;;;;;;;4.60;3.50;;;;;;;26.17;37.88;98884.77;223649;182;138776;-65
2023/06/26 10:59:24;;;;;;;9.90;8.00;;;;;;;26.02;37.03;98890.25;223740;182;138462;-65
2023/06/26 11:04:54;;;;;;;8.00;4.30;;;;;;;26.13;37.26;98885.63;223493;182;145943;-64
2023/06/26 11:10:12;;;;;;;4.70;3.50;;;;;;;26.47;36.74;98884.72;223697;181;139561;-65
2023/06/26 11:15:18;;;;;;;4.70;3.50;;;;;;;26.76;35.96;98874.77;223679;181;136562;-65
2023/06/26 11:20:22;;;;;;;5.60;3.30;;;;;;;27.02;36.71;98870.46;223642;181;146011;-65
2023/06/26 11:25:26;;;;;;;4.20;3.00;;;;;;;27.30;36.27;98870.42;223611;181;138553;-65
2023/06/26 11:30:30;;;;;;;5.50;3.30;;;;;;;27.52;34.61;98873.38;223725;181;136121;-65
2023/06/26 11:35:33;;;;;;;7.00;4.00;;;;;;;27.68;33.99;98870.54;223680;181;145942;-65
2023/06/26 11:40:37;;;;;;;4.70;3.10;;;;;;;27.83;33.83;98872.66;223721;181;138788;-65
2023/06/26 11:45:41;;;;;;;4.80;3.10;;;;;;;28.01;33.79;98868.16;223652;182;136767;-64
2023/06/26 11:50:44;;;;;;;5.20;3.30;;;;;;;28.22;33.58;98860.05;223672;181;145001;-64
2023/06/26 11:55:49;;;;;;;4.80;3.40;;;;;;;28.44;34.08;98855.48;223635;181;138831;-65
2023/06/26 12:01:02;;;;;;;8.00;3.70;;;;;;;28.36;32.92;98855.80;223821;181;137006;-65
2023/06/26 12:06:06;;;;;;;5.50;3.50;;;;;;;28.06;33.03;98859.09;223859;181;145912;-64
2023/06/26 12:11:10;;;;;;;4.40;3.60;;;;;;;28.12;33.93;98854.26;223690;181;138465;-65
2023/06/26 12:16:14;;;;;;;6.20;4.00;;;;;;;28.39;33.43;98849.20;223651;181;136355;-65
2023/06/26 12:21:41;;;;;;;5.70;3.70;;;;;;;28.62;32.64;98853.23;223614;181;144944;-64
2023/06/26 12:26:47;;;;;;;4.40;3.50;;;;;;;28.69;31.87;98847.55;223690;180;139638;-64
2023/06/26 12:31:52;;;;;;;6.90;3.70;;;;;;;28.86;31.36;98842.37;223625;181;136563;-65
2023/06/26 12:37:02;;;;;;;4.40;3.60;;;;;;;29.09;31.09;98842.92;223733;180;145106;-65
2023/06/26 12:42:06;;;;;;;5.80;3.80;;;;;;;29.33;32.10;98835.73;223662;180;138435;-66
2023/06/26 12:47:10;;;;;;;4.60;4.00;;;;;;;29.53;30.33;98827.31;223685;181;137212;-65
2023/06/26 12:52:15;;;;;;;5.40;3.90;;;;;;;29.73;30.69;98818.45;223700;181;145426;-66
2023/06/26 12:57:19;;;;;;;4.60;4.00;;;;;;;29.97;30.23;98815.98;223686;181;140136;-65
2023/06/26 13:02:22;;;;;;;7.90;4.00;;;;;;;30.16;30.55;98807.08;223611;181;137360;-66
2023/06/26 13:07:26;;;;;;;84.90;75.60;;;;;;;30.37;30.23;98812.65;223700;181;145583;-65
2023/06/26 13:12:29;;;;;;;11.50;7.20;;;;;;;30.55;30.05;98811.91;223650;181;139245;-66
2023/06/26 13:17:32;;;;;;;9.60;4.50;;;;;;;30.68;29.96;98805.08;223781;181;139796;-65
2023/06/26 13:22:35;;;;;;;8.60;4.20;;;;;;;30.80;28.90;98796.00;223612;181;145801;-65
2023/06/26 13:27:39;;;;;;;6.40;4.20;;;;;;;30.89;28.93;98790.20;223641;181;139014;-66
2023/06/26 13:32:48;;;;;;;5.70;4.50;;;;;;;31.06;29.74;98785.05;223695;181;136218;-66
2023/06/26 13:37:51;;;;;;;5.30;4.40;;;;;;;30.97;29.17;98782.77;223741;181;145414;-66
2023/06/26 13:42:54;;;;;;;6.80;4.30;;;;;;;30.93;29.37;98775.73;223681;181;139544;-65
2023/06/26 13:47:58;;;;;;;7.90;4.50;;;;;;;30.95;29.78;98774.27;223884;181;136894;-64
2023/06/26 13:53:02;;;;;;;5.60;4.30;;;;;;;30.98;28.34;98772.36;223835;181;146644;-65
2023/06/26 13:58:05;;;;;;;6.00;4.30;;;;;;;30.82;29.08;98766.54;223691;181;138204;-65
2023/06/26 14:03:09;;;;;;;5.30;4.50;;;;;;;30.96;29.16;98762.91;223639;181;136818;-66
2023/06/26 14:08:14;;;;;;;5.80;4.20;;;;;;;31.14;28.38;98760.23;223695;181;145237;-65
2023/06/26 14:13:17;;;;;;;5.80;4.50;;;;;;;31.06;29.02;98750.04;223655;181;138616;-68
2023/06/26 14:18:26;;;;;;;88.60;71.10;;;;;;;31.04;27.96;98744.36;223698;181;136752;-65
2023/06/26 14:23:30;;;;;;;12.40;7.90;;;;;;;31.06;28.35;98742.30;223649;181;146095;-65
2023/06/26 14:28:33;;;;;;;6.40;4.60;;;;;;;30.93;28.19;98741.45;223654;181;139747;-65
2023/06/26 14:33:36;;;;;;;7.70;4.20;;;;;;;30.83;27.22;98742.04;223728;181;137366;-66
2023/06/26 14:38:40;;;;;;;10.60;4.60;;;;;;;30.51;27.74;98728.39;223706;181;145045;-65
2023/06/26 14:43:45;;;;;;;11.50;4.80;;;;;;;30.20;27.83;98717.25;223698;181;140183;-66
2023/06/26 14:50:48;;;;;;;5.50;4.30;;;;;;;29.88;28.56;98710.92;219604;193;675157;-65
2023/06/26 14:55:51;;;;;;;9.60;4.50;;;;;;;29.55;28.94;98708.47;223308;183;136180;-65
2023/06/26 15:00:54;;;;;;;6.90;4.60;;;;;;;29.27;29.76;98705.41;223549;183;143564;-65
2023/06/26 15:05:58;;;;;;;11.20;5.10;;;;;;;29.06;30.98;98699.63;223516;183;138588;-65
2023/06/26 15:11:02;;;;;;;8.20;4.80;;;;;;;28.93;30.79;98694.82;223605;183;137087;-66
2023/06/26 15:16:06;;;;;;;;;;;;;;;28.81;30.19;98698.06;223472;183;143717;-66
2023/06/26 15:21:09;;;;;;;11.10;9.10;;;;;;;28.63;29.91;98692.27;223625;184;138465;-68
2023/06/26 15:26:18;;;;;;;14.70;10.80;;;;;;;28.50;29.99;98686.92;223636;182;136530;-68
2023/06/26 15:31:22;;;;;;;13.40;9.30;;;;;;;28.46;30.76;98681.80;223706;182;143182;-65
2023/06/26 15:36:26;;;;;;;8.90;4.90;;;;;;;28.38;31.40;98682.85;223447;181;139018;-67
2023/06/26 15:41:31;;;;;;;7.80;5.40;;;;;;;28.20;31.49;98679.68;223749;181;136957;-68
2023/06/26 15:46:35;;;;;;;6.10;5.20;;;;;;;28.11;32.30;98672.01;223758;181;146052;-68
2023/06/26 15:51:41;;;;;;;10.00;4.90;;;;;;;28.05;32.48;98670.13;223721;181;138559;-68
2023/06/26 15:56:46;;;;;;;5.90;4.80;;;;;;;28.02;32.19;98664.21;223723;182;137226;-65
2023/06/26 16:01:50;;;;;;;;;;;;;;;27.99;32.21;98663.64;223554;181;145544;-67
2023/06/26 16:06:55;;;;;;;6.40;4.60;;;;;;;27.91;32.27;98659.09;223541;180;138635;-68
2023/06/26 16:12:02;;;;;;;6.70;4.40;;;;;;;27.87;32.43;98654.22;223607;214;136475;-67
2023/06/26 16:17:06;;;;;;;6.60;4.70;;;;;;;27.83;32.51;98646.15;223462;181;145721;-68
2023/06/26 16:22:11;;;;;;;7.70;4.60;;;;;;;27.76;32.41;98646.45;223491;181;138601;-67
2023/06/26 16:27:14;;;;;;;10.70;7.80;;;;;;;27.71;32.32;98646.46;223548;181;137274;-67
2023/06/26 16:32:17;;;;;;;7.90;5.00;;;;;;;27.66;32.22;98642.05;223404;181;145755;-69
2023/06/26 16:37:21;;;;;;;5.20;4.50;;;;;;;27.59;32.42;98630.80;223536;181;138210;-69
2023/06/26 16:42:24;;;;;;;8.80;5.60;;;;;;;27.55;32.93;98627.32;223535;193;136277;-67
2023/06/26 16:50:47;;;;;;;6.50;4.80;;;;;;;27.50;32.71;98627.34;220518;193;676411;-65
2023/06/26 16:55:51;;;;;;;8.90;5.00;;;;;;;27.37;32.74;98619.29;223440;183;136924;-67
2023/06/26 17:00:55;;;;;;;8.00;4.90;;;;;;;27.28;33.18;98613.94;223431;183;144245;-66
2023/06/26 17:05:58;;;;;;;5.40;4.50;;;;;;;27.23;33.54;98613.72;223394;187;139096;-64
2023/06/26 17:11:02;;;;;;;7.00;4.80;;;;;;;27.19;34.05;98617.98;223382;182;136411;-67
2023/06/26 17:16:05;;;;;;;10.10;4.80;;;;;;;27.14;34.19;98622.70;223535;216;143852;-66
2023/06/26 17:21:12;;;;;;;6.10;4.50;;;;;;;27.07;34.33;98620.11;223448;182;150826;-64
2023/06/26 17:26:15;;;;;;;6.80;4.60;;;;;;;26.99;34.26;98622.00;223403;182;138417;-66
2023/06/26 17:31:19;;;;;;;24.80;20.20;;;;;;;26.94;34.57;98627.02;223398;182;144051;-68
2023/06/26 17:36:22;;;;;;;7.20;6.30;;;;;;;26.91;34.89;98629.79;223511;182;139771;-69
2023/06/26 17:41:26;;;;;;;13.10;5.60;;;;;;;26.87;34.74;98633.60;223375;182;136101;-72
2023/06/26 17:46:29;;;;;;;6.60;5.00;;;;;;;26.82;34.76;98636.45;223366;183;145409;-65
2023/06/26 17:51:33;;;;;;;8.70;4.60;;;;;;;26.74;34.40;98633.52;223454;183;138401;-67
2023/06/26 17:56:37;;;;;;;8.80;4.60;;;;;;;26.69;34.47;98639.17;223344;183;137201;-66
2023/06/26 18:01:41;;;;;;;6.60;3.80;;;;;;;26.63;34.29;98640.77;223366;183;145323;-65
2023/06/26 18:06:44;;;;;;;7.70;4.30;;;;;;;26.56;34.36;98637.45;223330;182;138833;-64
2023/06/26 18:11:48;;;;;;;36.70;29.70;;;;;;;26.49;34.42;98635.49;223519;208;137011;-65
2023/06/26 18:16:51;;;;;;;9.90;6.10;;;;;;;26.42;34.61;98636.30;223482;181;146858;-65
2023/06/26 18:21:54;;;;;;;72.90;61.70;;;;;;;26.35;34.70;98635.70;223422;182;138296;-67
2023/06/26 18:26:57;;;;;;;9.90;6.50;;;;;;;26.28;34.96;98635.77;223477;181;138343;-66
2023/06/26 18:32:01;;;;;;;69.40;55.40;;;;;;;26.21;35.11;98635.11;223404;181;147529;-67
2023/06/26 18:37:04;;;;;;;14.20;6.70;;;;;;;26.13;35.45;98633.20;223299;181;138802;-67
2023/06/26 18:42:08;;;;;;;8.40;4.70;;;;;;;26.01;35.67;98634.08;223567;181;139906;-66
2023/06/26 18:47:13;;;;;;;7.10;5.50;;;;;;;25.97;35.87;98635.41;223500;182;145205;-68
2023/06/26 18:52:17;;;;;;;9.50;5.00;;;;;;;25.96;36.06;98631.29;223421;181;138975;-67
2023/06/26 18:57:20;;;;;;;272.90;239.40;;;;;;;25.92;36.05;98623.89;223463;181;137090;-66
2023/06/26 19:02:23;;;;;;;44.70;35.90;;;;;;;25.87;36.55;98619.19;223351;182;145824;-65
2023/06/26 19:07:26;;;;;;;25.80;20.90;;;;;;;25.81;37.85;98621.63;223400;181;138099;-64
2023/06/26 19:12:30;;;;;;;9.20;6.00;;;;;;;25.75;38.53;98619.14;223568;215;137070;-66
2023/06/26 19:17:33;;;;;;;11.30;5.60;;;;;;;25.61;39.68;98616.52;223554;182;145191;-65
2023/06/26 19:22:37;;;;;;;328.90;275.50;;;;;;;25.40;39.91;98616.02;223363;182;138737;-66
2023/06/26 19:27:53;;;;;;;19.90;15.50;;;;;;;25.23;40.33;98618.89;223434;182;138542;-66
2023/06/26 19:32:56;;;;;;;10.10;6.60;;;;;;;25.08;40.75;98619.35;223347;184;147094;-66
2023/06/26 19:38:00;;;;;;;71.20;63.60;;;;;;;24.96;40.95;98616.58;223455;182;138234;-67
2023/06/26 19:43:10;;;;;;;9.40;6.80;;;;;;;24.87;41.50;98616.13;223456;182;137208;-67
2023/06/26 19:48:13;;;;;;;12.30;5.90;;;;;;;24.78;41.69;98612.16;223646;182;145305;-66
2023/06/26 19:53:17;;;;;;;8.00;6.10;;;;;;;24.70;41.94;98609.88;223532;181;140608;-68
2023/06/26 19:58:20;;;;;;;10.90;5.80;;;;;;;24.64;41.66;98603.75;223604;181;137158;-65
2023/06/26 20:03:23;;;;;;;454.50;384.30;;;;;;;24.56;42.89;98597.16;223429;181;146682;-65
2023/06/26 20:08:27;;;;;;;33.10;25.30;;;;;;;24.42;43.75;98597.54;223495;181;138154;-66
2023/06/26 20:13:30;;;;;;;114.10;101.60;;;;;;;24.29;44.30;98594.56;223614;180;137028;-66
2023/06/26 20:18:33;;;;;;;16.10;11.20;;;;;;;24.16;44.84;98595.64;223475;181;145269;-65
2023/06/26 20:23:37;;;;;;;20.60;14.00;;;;;;;24.06;44.65;98586.97;223679;181;139824;-66
2023/06/26 20:28:41;;;;;;;392.70;330.40;;;;;;;23.99;44.99;98590.64;223588;181;137042;-67
2023/06/26 20:33:52;;;;;;;23.60;17.30;;;;;;;23.86;45.64;98592.08;223652;181;146932;-66
2023/06/26 20:38:56;;;;;;;31.30;26.40;;;;;;;23.71;46.28;98588.77;223534;189;138179;-66
2023/06/26 20:44:00;;;;;;;13.40;7.70;;;;;;;23.58;47.03;98589.08;223611;185;137360;-65
2023/06/26 20:49:04;;;;;;;34.70;26.50;;;;;;;23.45;47.48;98589.90;223771;181;145240;-67
2023/06/26 20:54:07;;;;;;;76.30;64.00;;;;;;;23.32;47.97;98585.52;223654;204;138451;-66
2023/06/26 20:59:11;;;;;;;27.70;22.60;;;;;;;23.21;48.90;98584.98;223660;182;136608;-67
2023/06/26 21:04:15;;;;;;;17.00;9.90;;;;;;;23.09;49.78;98582.81;223550;182;147273;-64
2023/06/26 21:09:18;;;;;;;14.60;7.70;;;;;;;23.00;50.56;98584.98;223479;192;138834;-68
2023/06/26 21:14:21;;;;;;;14.20;7.10;;;;;;;22.81;50.50;98591.41;223550;181;136973;-66
2023/06/26 21:19:25;;;;;;;16.50;7.80;;;;;;;22.65;51.28;98600.27;223737;181;145951;-65
2023/06/26 21:24:28;;;;;;;16.30;7.40;;;;;;;22.53;51.73;98601.00;223560;203;138487;-65
2023/06/26 21:29:31;;;;;;;13.90;7.40;;;;;;;22.40;52.31;98602.23;223618;181;137830;-66
2023/06/26 21:34:34;;;;;;;12.00;7.40;;;;;;;22.28;52.68;98602.48;223485;182;145762;-66
2023/06/26 21:39:37;;;;;;;15.30;7.20;;;;;;;22.17;52.98;98584.52;223551;180;138470;-67
2023/06/26 21:44:41;;;;;;;12.50;8.20;;;;;;;22.07;53.56;98584.46;223549;181;136899;-66
2023/06/26 21:49:44;;;;;;;14.10;7.80;;;;;;;21.97;53.81;98582.19;223465;214;145792;-67
2023/06/26 21:54:47;;;;;;;17.70;7.70;;;;;;;21.88;54.16;98575.27;223447;181;138917;-67
2023/06/26 21:59:50;;;;;;;15.80;8.00;;;;;;;21.82;54.52;98570.09;223688;185;137511;-69
2023/06/26 22:04:54;;;;;;;14.50;7.80;;;;;;;21.72;55.02;98575.50;223511;181;145463;-69
2023/06/26 22:09:57;;;;;;;16.10;7.40;;;;;;;21.64;55.39;98571.41;223427;181;138542;-70
2023/06/26 22:15:02;;;;;;;15.40;8.00;;;;;;;21.56;55.84;98566.00;223516;181;137996;-70
2023/06/26 22:20:06;;;;;;;12.70;7.50;;;;;;;21.50;56.64;98558.91;223548;181;147109;-68
2023/06/26 22:25:10;;;;;;;14.70;7.90;;;;;;;21.44;57.26;98553.16;223652;181;138558;-67
2023/06/26 22:30:14;;;;;;;12.90;7.80;;;;;;;21.39;57.48;98547.20;223581;215;137155;-66
2023/06/26 22:35:18;;;;;;;16.20;7.80;;;;;;;21.33;57.90;98539.05;223649;181;145659;-69
2023/06/26 22:40:21;;;;;;;14.20;8.50;;;;;;;21.27;58.24;98533.61;223491;181;139955;-66
2023/06/26 22:50:46;;;;;;;17.80;9.40;;;;;;;21.21;58.94;98523.11;219503;193;666491;-67
2023/06/26 22:55:51;;;;;;;;;;;;;;;21.17;59.36;98507.70;220893;182;139372;-66
2023/06/26 23:00:59;;;;;;;19.20;8.60;;;;;;;21.13;59.78;98505.97;223599;183;143574;-66
2023/06/26 23:06:03;;;;;;;15.80;9.20;;;;;;;21.09;59.85;98499.05;223489;184;138295;-66
2023/06/26 23:11:06;;;;;;;16.40;8.50;;;;;;;21.06;60.18;98494.73;223560;182;136523;-67
2023/06/26 23:16:13;;;;;;;20.10;9.00;;;;;;;21.01;60.26;98492.52;223443;183;143947;-67
2023/06/26 23:21:19;;;;;;;15.20;8.70;;;;;;;20.98;60.46;98496.65;223851;180;139156;-67
2023/06/26 23:26:23;;;;;;;12.70;7.60;;;;;;;20.98;60.41;98489.83;223821;180;137129;-67
2023/06/26 23:31:27;;;;;;;13.40;7.90;;;;;;;20.97;60.48;98483.36;223748;180;143687;-67
2023/06/26 23:36:37;;;;;;;14.30;8.10;;;;;;;20.99;60.79;98480.71;223836;213;139920;-67
2023/06/26 23:41:41;;;;;;;16.50;8.60;;;;;;;20.98;60.99;98477.95;223751;181;136584;-67
2023/06/26 23:52:21;;;;;;;21.30;8.80;;;;;;;20.96;61.74;98468.73;221854;193;665967;-68
2023/06/26 23:57:24;;;;;;;14.70;8.80;;;;;;;20.91;62.03;98459.75;223354;184;136344;-68
